sensor_id;sensor_type;location;lat;lon;timestamp;P1;durP1;ratioP1;P2;durP2;ratioP2
30505;SDS011;17292;51.600;4.994;2023-05-10T00:01:40;10.27;;;5.07;;
30505;SDS011;17292;51.600;4.994;2023-05-10T00:04:06;9.68;;;4.95;;
30505;SDS011;17292;51.600;4.994;2023-05-10T00:06:32;9.10;;;5.28;;
30505;SDS011;17292;51.600;4.994;2023-05-10T00:08:59;11.98;;;5.32;;
30505;SDS011;17292;51.600;4.994;2023-05-10T00:11:25;8.43;;;5.40;;
30505;SDS011;17292;51.600;4.994;2023-05-10T00:13:51;8.43;;;4.85;;
30505;SDS011;17292;51.600;4.994;2023-05-10T00:16:17;11.45;;;5.47;;
30505;SDS011;17292;51.600;4.994;2023-05-10T00:18:43;11.65;;;5.13;;
30505;SDS011;17292;51.600;4.994;2023-05-10T00:21:09;7.25;;;5.15;;
30505;SDS011;17292;51.600;4.994;2023-05-10T00:23:35;6.25;;;4.78;;
30505;SDS011;17292;51.600;4.994;2023-05-10T00:26:02;14.15;;;5.38;;
30505;SDS011;17292;51.600;4.994;2023-05-10T00:28:28;10.23;;;5.28;;
30505;SDS011;17292;51.600;4.994;2023-05-10T00:30:54;12.45;;;4.90;;
30505;SDS011;17292;51.600;4.994;2023-05-10T00:33:20;8.30;;;5.03;;
30505;SDS011;17292;51.600;4.994;2023-05-10T00:35:47;11.35;;;5.45;;
30505;SDS011;17292;51.600;4.994;2023-05-10T00:38:13;8.40;;;4.80;;
30505;SDS011;17292;51.600;4.994;2023-05-10T00:40:39;9.05;;;5.28;;
30505;SDS011;17292;51.600;4.994;2023-05-10T00:43:05;10.32;;;4.70;;
30505;SDS011;17292;51.600;4.994;2023-05-10T00:45:32;10.68;;;5.68;;
30505;SDS011;17292;51.600;4.994;2023-05-10T00:47:59;13.82;;;5.85;;
30505;SDS011;17292;51.600;4.994;2023-05-10T00:50:27;11.63;;;5.60;;
30505;SDS011;17292;51.600;4.994;2023-05-10T00:52:53;7.80;;;5.07;;
30505;SDS011;17292;51.600;4.994;2023-05-10T00:55:20;7.88;;;4.95;;
30505;SDS011;17292;51.600;4.994;2023-05-10T00:57:46;11.57;;;5.72;;
30505;SDS011;17292;51.600;4.994;2023-05-10T01:00:13;8.93;;;5.57;;
30505;SDS011;17292;51.600;4.994;2023-05-10T01:02:43;12.88;;;5.90;;
30505;SDS011;17292;51.600;4.994;2023-05-10T01:05:10;10.90;;;5.20;;
30505;SDS011;17292;51.600;4.994;2023-05-10T01:07:36;8.90;;;5.07;;
30505;SDS011;17292;51.600;4.994;2023-05-10T01:10:02;11.80;;;5.22;;
30505;SDS011;17292;51.600;4.994;2023-05-10T01:12:28;10.63;;;5.20;;
30505;SDS011;17292;51.600;4.994;2023-05-10T01:14:55;11.02;;;5.28;;
30505;SDS011;17292;51.600;4.994;2023-05-10T01:17:21;9.00;;;4.90;;
30505;SDS011;17292;51.600;4.994;2023-05-10T01:19:48;9.80;;;4.85;;
30505;SDS011;17292;51.600;4.994;2023-05-10T01:33:19;9.68;;;4.85;;
30505;SDS011;17292;51.600;4.994;2023-05-10T01:38:29;8.43;;;4.72;;
30505;SDS011;17292;51.600;4.994;2023-05-10T01:46:27;12.52;;;4.93;;
30505;SDS011;17292;51.600;4.994;2023-05-10T01:48:55;9.93;;;4.05;;
30505;SDS011;17292;51.600;4.994;2023-05-10T01:51:23;7.32;;;4.45;;
30505;SDS011;17292;51.600;4.994;2023-05-10T01:53:51;8.18;;;5.15;;
30505;SDS011;17292;51.600;4.994;2023-05-10T01:56:20;9.60;;;5.13;;
30505;SDS011;17292;51.600;4.994;2023-05-10T01:58:48;8.00;;;4.60;;
30505;SDS011;17292;51.600;4.994;2023-05-10T02:01:16;6.97;;;4.20;;
30505;SDS011;17292;51.600;4.994;2023-05-10T02:03:43;7.07;;;4.25;;
30505;SDS011;17292;51.600;4.994;2023-05-10T02:06:09;6.60;;;4.03;;
30505;SDS011;17292;51.600;4.994;2023-05-10T02:08:36;6.93;;;3.95;;
30505;SDS011;17292;51.600;4.994;2023-05-10T02:11:02;7.13;;;4.18;;
30505;SDS011;17292;51.600;4.994;2023-05-10T02:13:29;6.38;;;4.18;;
30505;SDS011;17292;51.600;4.994;2023-05-10T02:15:55;8.18;;;4.18;;
30505;SDS011;17292;51.600;4.994;2023-05-10T02:18:22;8.10;;;4.25;;
30505;SDS011;17292;51.600;4.994;2023-05-10T02:20:49;7.75;;;4.82;;
30505;SDS011;17292;51.600;4.994;2023-05-10T02:23:16;10.82;;;4.60;;
30505;SDS011;17292;51.600;4.994;2023-05-10T02:25:43;7.53;;;3.85;;
30505;SDS011;17292;51.600;4.994;2023-05-10T02:28:09;9.43;;;4.57;;
30505;SDS011;17292;51.600;4.994;2023-05-10T02:30:36;4.88;;;3.45;;
30505;SDS011;17292;51.600;4.994;2023-05-10T02:33:03;5.75;;;4.15;;
30505;SDS011;17292;51.600;4.994;2023-05-10T02:35:30;7.90;;;4.15;;
30505;SDS011;17292;51.600;4.994;2023-05-10T02:37:58;6.38;;;4.03;;
30505;SDS011;17292;51.600;4.994;2023-05-10T02:40:24;6.80;;;4.10;;
30505;SDS011;17292;51.600;4.994;2023-05-10T02:42:52;8.70;;;4.32;;
30505;SDS011;17292;51.600;4.994;2023-05-10T02:45:20;7.15;;;3.85;;
30505;SDS011;17292;51.600;4.994;2023-05-10T02:47:47;7.07;;;3.88;;
30505;SDS011;17292;51.600;4.994;2023-05-10T02:50:14;5.70;;;3.65;;
30505;SDS011;17292;51.600;4.994;2023-05-10T02:52:42;5.45;;;3.92;;
30505;SDS011;17292;51.600;4.994;2023-05-10T02:55:11;6.28;;;3.90;;
30505;SDS011;17292;51.600;4.994;2023-05-10T02:57:39;5.50;;;3.90;;
30505;SDS011;17292;51.600;4.994;2023-05-10T03:00:07;6.63;;;4.03;;
30505;SDS011;17292;51.600;4.994;2023-05-10T03:02:33;7.55;;;4.28;;
30505;SDS011;17292;51.600;4.994;2023-05-10T03:05:01;9.45;;;4.10;;
30505;SDS011;17292;51.600;4.994;2023-05-10T03:07:28;5.88;;;3.85;;
30505;SDS011;17292;51.600;4.994;2023-05-10T03:09:54;5.90;;;3.35;;
30505;SDS011;17292;51.600;4.994;2023-05-10T03:12:41;7.28;;;3.83;;
30505;SDS011;17292;51.600;4.994;2023-05-10T03:17:52;8.18;;;3.90;;
30505;SDS011;17292;51.600;4.994;2023-05-10T03:20:29;8.23;;;4.25;;
30505;SDS011;17292;51.600;4.994;2023-05-10T03:25:35;6.40;;;3.67;;
30505;SDS011;17292;51.600;4.994;2023-05-10T03:28:02;6.80;;;4.07;;
30505;SDS011;17292;51.600;4.994;2023-05-10T03:30:30;6.95;;;3.70;;
30505;SDS011;17292;51.600;4.994;2023-05-10T03:32:56;5.68;;;4.20;;
30505;SDS011;17292;51.600;4.994;2023-05-10T03:35:22;6.53;;;3.78;;
30505;SDS011;17292;51.600;4.994;2023-05-10T03:37:49;6.40;;;3.75;;
30505;SDS011;17292;51.600;4.994;2023-05-10T03:40:15;8.55;;;3.70;;
30505;SDS011;17292;51.600;4.994;2023-05-10T03:42:41;8.02;;;4.03;;
30505;SDS011;17292;51.600;4.994;2023-05-10T03:45:08;8.45;;;3.50;;
30505;SDS011;17292;51.600;4.994;2023-05-10T03:47:34;5.57;;;3.38;;
30505;SDS011;17292;51.600;4.994;2023-05-10T03:50:00;5.82;;;4.00;;
30505;SDS011;17292;51.600;4.994;2023-05-10T03:52:27;7.13;;;4.13;;
30505;SDS011;17292;51.600;4.994;2023-05-10T03:54:53;7.22;;;3.63;;
30505;SDS011;17292;51.600;4.994;2023-05-10T03:57:19;7.65;;;3.97;;
30505;SDS011;17292;51.600;4.994;2023-05-10T03:59:45;6.55;;;3.63;;
30505;SDS011;17292;51.600;4.994;2023-05-10T04:02:11;6.57;;;3.50;;
30505;SDS011;17292;51.600;4.994;2023-05-10T04:04:37;7.32;;;3.75;;
30505;SDS011;17292;51.600;4.994;2023-05-10T04:07:04;8.50;;;3.88;;
30505;SDS011;17292;51.600;4.994;2023-05-10T04:09:32;6.78;;;3.95;;
30505;SDS011;17292;51.600;4.994;2023-05-10T04:11:58;8.68;;;3.63;;
30505;SDS011;17292;51.600;4.994;2023-05-10T04:14:27;5.85;;;3.55;;
30505;SDS011;17292;51.600;4.994;2023-05-10T04:16:53;9.57;;;3.92;;
30505;SDS011;17292;51.600;4.994;2023-05-10T04:19:20;8.95;;;3.75;;
30505;SDS011;17292;51.600;4.994;2023-05-10T04:21:46;5.38;;;3.60;;
30505;SDS011;17292;51.600;4.994;2023-05-10T04:24:12;5.00;;;3.65;;
30505;SDS011;17292;51.600;4.994;2023-05-10T04:26:38;8.57;;;4.50;;
30505;SDS011;17292;51.600;4.994;2023-05-10T04:29:05;8.27;;;3.80;;
30505;SDS011;17292;51.600;4.994;2023-05-10T04:31:31;7.97;;;4.32;;
30505;SDS011;17292;51.600;4.994;2023-05-10T04:33:57;9.50;;;4.97;;
30505;SDS011;17292;51.600;4.994;2023-05-10T04:36:23;4.65;;;3.55;;
30505;SDS011;17292;51.600;4.994;2023-05-10T04:38:49;5.65;;;3.88;;
30505;SDS011;17292;51.600;4.994;2023-05-10T04:41:16;7.90;;;3.92;;
30505;SDS011;17292;51.600;4.994;2023-05-10T04:43:42;10.15;;;3.88;;
30505;SDS011;17292;51.600;4.994;2023-05-10T04:46:08;8.32;;;4.35;;
30505;SDS011;17292;51.600;4.994;2023-05-10T04:48:34;8.20;;;3.70;;
30505;SDS011;17292;51.600;4.994;2023-05-10T04:51:00;8.02;;;3.95;;
30505;SDS011;17292;51.600;4.994;2023-05-10T04:53:28;5.28;;;3.55;;
30505;SDS011;17292;51.600;4.994;2023-05-10T04:55:54;6.70;;;3.90;;
30505;SDS011;17292;51.600;4.994;2023-05-10T04:58:21;6.50;;;3.78;;
30505;SDS011;17292;51.600;4.994;2023-05-10T05:00:47;6.05;;;3.72;;
30505;SDS011;17292;51.600;4.994;2023-05-10T05:03:13;6.57;;;3.78;;
30505;SDS011;17292;51.600;4.994;2023-05-10T05:05:39;6.15;;;3.80;;
30505;SDS011;17292;51.600;4.994;2023-05-10T05:08:06;4.40;;;3.30;;
30505;SDS011;17292;51.600;4.994;2023-05-10T05:10:32;6.55;;;3.53;;
30505;SDS011;17292;51.600;4.994;2023-05-10T05:12:58;8.60;;;3.85;;
30505;SDS011;17292;51.600;4.994;2023-05-10T05:15:24;10.15;;;3.90;;
30505;SDS011;17292;51.600;4.994;2023-05-10T05:17:50;13.77;;;4.75;;
30505;SDS011;17292;51.600;4.994;2023-05-10T05:20:16;38.22;;;5.18;;
30505;SDS011;17292;51.600;4.994;2023-05-10T05:22:44;18.10;;;4.45;;
30505;SDS011;17292;51.600;4.994;2023-05-10T05:25:10;9.65;;;3.95;;
30505;SDS011;17292;51.600;4.994;2023-05-10T05:27:37;21.20;;;4.80;;
30505;SDS011;17292;51.600;4.994;2023-05-10T05:30:03;16.20;;;4.55;;
30505;SDS011;17292;51.600;4.994;2023-05-10T05:32:29;17.85;;;4.50;;
30505;SDS011;17292;51.600;4.994;2023-05-10T05:34:55;7.80;;;4.07;;
30505;SDS011;17292;51.600;4.994;2023-05-10T05:37:21;11.63;;;4.00;;
30505;SDS011;17292;51.600;4.994;2023-05-10T05:39:49;7.93;;;4.22;;
30505;SDS011;17292;51.600;4.994;2023-05-10T05:42:15;12.82;;;4.22;;
30505;SDS011;17292;51.600;4.994;2023-05-10T05:44:43;11.05;;;3.88;;
30505;SDS011;17292;51.600;4.994;2023-05-10T05:47:09;14.45;;;4.15;;
30505;SDS011;17292;51.600;4.994;2023-05-10T05:49:36;10.75;;;3.92;;
30505;SDS011;17292;51.600;4.994;2023-05-10T05:52:02;8.45;;;4.15;;
30505;SDS011;17292;51.600;4.994;2023-05-10T05:54:29;18.92;;;4.70;;
30505;SDS011;17292;51.600;4.994;2023-05-10T05:56:56;9.45;;;3.80;;
30505;SDS011;17292;51.600;4.994;2023-05-10T05:59:22;10.60;;;4.43;;
30505;SDS011;17292;51.600;4.994;2023-05-10T06:01:49;24.27;;;5.75;;
30505;SDS011;17292;51.600;4.994;2023-05-10T06:04:15;18.58;;;5.63;;
30505;SDS011;17292;51.600;4.994;2023-05-10T06:06:42;25.42;;;4.25;;
30505;SDS011;17292;51.600;4.994;2023-05-10T06:09:08;25.20;;;5.15;;
30505;SDS011;17292;51.600;4.994;2023-05-10T06:11:34;22.65;;;4.53;;
30505;SDS011;17292;51.600;4.994;2023-05-10T06:14:01;11.63;;;4.07;;
30505;SDS011;17292;51.600;4.994;2023-05-10T06:16:29;13.40;;;4.22;;
30505;SDS011;17292;51.600;4.994;2023-05-10T06:18:55;14.27;;;4.30;;
30505;SDS011;17292;51.600;4.994;2023-05-10T06:21:21;10.15;;;3.67;;
30505;SDS011;17292;51.600;4.994;2023-05-10T06:23:48;7.93;;;4.00;;
30505;SDS011;17292;51.600;4.994;2023-05-10T06:26:14;13.45;;;4.03;;
30505;SDS011;17292;51.600;4.994;2023-05-10T06:28:40;11.40;;;3.88;;
30505;SDS011;17292;51.600;4.994;2023-05-10T06:31:06;7.28;;;3.92;;
30505;SDS011;17292;51.600;4.994;2023-05-10T06:33:33;9.75;;;4.75;;
30505;SDS011;17292;51.600;4.994;2023-05-10T06:35:59;6.13;;;3.45;;
30505;SDS011;17292;51.600;4.994;2023-05-10T06:38:25;12.35;;;3.97;;
30505;SDS011;17292;51.600;4.994;2023-05-10T06:40:52;12.60;;;4.30;;
30505;SDS011;17292;51.600;4.994;2023-05-10T06:43:18;9.95;;;4.10;;
30505;SDS011;17292;51.600;4.994;2023-05-10T06:45:44;15.25;;;4.40;;
30505;SDS011;17292;51.600;4.994;2023-05-10T06:48:11;13.50;;;4.40;;
30505;SDS011;17292;51.600;4.994;2023-05-10T06:50:37;12.15;;;4.55;;
30505;SDS011;17292;51.600;4.994;2023-05-10T06:53:03;15.25;;;4.13;;
30505;SDS011;17292;51.600;4.994;2023-05-10T06:55:29;12.38;;;4.43;;
30505;SDS011;17292;51.600;4.994;2023-05-10T06:57:55;7.63;;;3.95;;
30505;SDS011;17292;51.600;4.994;2023-05-10T07:00:21;11.75;;;4.07;;
30505;SDS011;17292;51.600;4.994;2023-05-10T07:02:47;11.27;;;4.35;;
30505;SDS011;17292;51.600;4.994;2023-05-10T07:05:14;14.40;;;4.00;;
30505;SDS011;17292;51.600;4.994;2023-05-10T07:07:40;10.13;;;3.97;;
30505;SDS011;17292;51.600;4.994;2023-05-10T07:10:06;10.70;;;4.10;;
30505;SDS011;17292;51.600;4.994;2023-05-10T07:12:33;9.48;;;4.07;;
30505;SDS011;17292;51.600;4.994;2023-05-10T07:14:59;13.35;;;4.38;;
30505;SDS011;17292;51.600;4.994;2023-05-10T07:17:25;10.48;;;3.78;;
30505;SDS011;17292;51.600;4.994;2023-05-10T07:19:51;12.90;;;4.28;;
30505;SDS011;17292;51.600;4.994;2023-05-10T07:22:17;11.77;;;4.75;;
30505;SDS011;17292;51.600;4.994;2023-05-10T07:24:43;20.20;;;4.90;;
30505;SDS011;17292;51.600;4.994;2023-05-10T07:27:10;8.68;;;4.28;;
30505;SDS011;17292;51.600;4.994;2023-05-10T07:29:37;10.38;;;4.20;;
30505;SDS011;17292;51.600;4.994;2023-05-10T07:32:04;17.30;;;4.47;;
30505;SDS011;17292;51.600;4.994;2023-05-10T07:34:30;16.35;;;4.97;;
30505;SDS011;17292;51.600;4.994;2023-05-10T07:36:59;17.52;;;4.90;;
30505;SDS011;17292;51.600;4.994;2023-05-10T07:39:26;11.88;;;4.45;;
30505;SDS011;17292;51.600;4.994;2023-05-10T07:41:53;20.48;;;4.68;;
30505;SDS011;17292;51.600;4.994;2023-05-10T07:44:19;18.55;;;4.65;;
30505;SDS011;17292;51.600;4.994;2023-05-10T07:46:45;15.35;;;4.38;;
30505;SDS011;17292;51.600;4.994;2023-05-10T07:49:12;15.15;;;4.78;;
30505;SDS011;17292;51.600;4.994;2023-05-10T07:51:38;14.50;;;4.72;;
30505;SDS011;17292;51.600;4.994;2023-05-10T07:54:05;19.27;;;4.65;;
30505;SDS011;17292;51.600;4.994;2023-05-10T07:56:31;14.85;;;4.75;;
30505;SDS011;17292;51.600;4.994;2023-05-10T07:58:58;19.00;;;4.95;;
30505;SDS011;17292;51.600;4.994;2023-05-10T08:01:25;20.00;;;4.50;;
30505;SDS011;17292;51.600;4.994;2023-05-10T08:03:52;18.90;;;4.63;;
30505;SDS011;17292;51.600;4.994;2023-05-10T08:06:19;15.13;;;4.07;;
30505;SDS011;17292;51.600;4.994;2023-05-10T08:08:46;21.52;;;5.70;;
30505;SDS011;17292;51.600;4.994;2023-05-10T08:11:17;17.23;;;4.75;;
30505;SDS011;17292;51.600;4.994;2023-05-10T08:13:44;17.10;;;5.03;;
30505;SDS011;17292;51.600;4.994;2023-05-10T08:16:10;17.20;;;4.50;;
30505;SDS011;17292;51.600;4.994;2023-05-10T08:18:37;19.40;;;4.35;;
30505;SDS011;17292;51.600;4.994;2023-05-10T08:21:03;15.57;;;4.70;;
30505;SDS011;17292;51.600;4.994;2023-05-10T08:23:29;11.68;;;4.80;;
30505;SDS011;17292;51.600;4.994;2023-05-10T08:25:55;14.30;;;4.55;;
30505;SDS011;17292;51.600;4.994;2023-05-10T08:28:22;9.65;;;4.45;;
30505;SDS011;17292;51.600;4.994;2023-05-10T08:30:49;14.05;;;4.68;;
30505;SDS011;17292;51.600;4.994;2023-05-10T08:33:15;15.93;;;4.90;;
30505;SDS011;17292;51.600;4.994;2023-05-10T08:35:41;27.60;;;5.70;;
30505;SDS011;17292;51.600;4.994;2023-05-10T08:38:08;14.63;;;4.82;;
30505;SDS011;17292;51.600;4.994;2023-05-10T08:40:34;17.85;;;4.88;;
30505;SDS011;17292;51.600;4.994;2023-05-10T08:43:05;18.38;;;4.78;;
30505;SDS011;17292;51.600;4.994;2023-05-10T08:45:33;17.67;;;5.13;;
30505;SDS011;17292;51.600;4.994;2023-05-10T08:48:00;18.75;;;4.93;;
30505;SDS011;17292;51.600;4.994;2023-05-10T08:50:27;25.52;;;5.22;;
30505;SDS011;17292;51.600;4.994;2023-05-10T08:52:54;18.30;;;4.80;;
30505;SDS011;17292;51.600;4.994;2023-05-10T08:55:21;12.82;;;4.22;;
30505;SDS011;17292;51.600;4.994;2023-05-10T08:57:49;28.00;;;4.65;;
30505;SDS011;17292;51.600;4.994;2023-05-10T09:00:15;18.05;;;5.00;;
30505;SDS011;17292;51.600;4.994;2023-05-10T09:02:43;13.55;;;4.65;;
30505;SDS011;17292;51.600;4.994;2023-05-10T09:05:10;16.20;;;5.18;;
30505;SDS011;17292;51.600;4.994;2023-05-10T09:07:37;18.65;;;5.07;;
30505;SDS011;17292;51.600;4.994;2023-05-10T09:10:04;14.75;;;4.85;;
30505;SDS011;17292;51.600;4.994;2023-05-10T09:12:30;11.88;;;4.15;;
30505;SDS011;17292;51.600;4.994;2023-05-10T09:14:57;17.30;;;4.82;;
30505;SDS011;17292;51.600;4.994;2023-05-10T09:17:25;22.20;;;4.85;;
30505;SDS011;17292;51.600;4.994;2023-05-10T09:19:57;12.35;;;4.70;;
30505;SDS011;17292;51.600;4.994;2023-05-10T09:22:23;16.98;;;4.30;;
30505;SDS011;17292;51.600;4.994;2023-05-10T09:25:03;19.42;;;5.63;;
30505;SDS011;17292;51.600;4.994;2023-05-10T09:27:29;17.65;;;5.05;;
30505;SDS011;17292;51.600;4.994;2023-05-10T09:29:55;17.65;;;4.55;;
30505;SDS011;17292;51.600;4.994;2023-05-10T09:32:27;16.95;;;5.03;;
30505;SDS011;17292;51.600;4.994;2023-05-10T09:35:08;20.75;;;5.05;;
30505;SDS011;17292;51.600;4.994;2023-05-10T09:37:34;18.98;;;5.60;;
30505;SDS011;17292;51.600;4.994;2023-05-10T09:40:00;18.92;;;4.90;;
30505;SDS011;17292;51.600;4.994;2023-05-10T09:42:30;19.35;;;5.28;;
30505;SDS011;17292;51.600;4.994;2023-05-10T09:44:59;13.07;;;4.50;;
30505;SDS011;17292;51.600;4.994;2023-05-10T09:47:26;15.38;;;4.70;;
30505;SDS011;17292;51.600;4.994;2023-05-10T09:49:52;22.60;;;5.47;;
30505;SDS011;17292;51.600;4.994;2023-05-10T09:52:22;23.98;;;4.93;;
30505;SDS011;17292;51.600;4.994;2023-05-10T09:54:52;18.20;;;5.00;;
30505;SDS011;17292;51.600;4.994;2023-05-10T09:57:22;16.35;;;4.80;;
30505;SDS011;17292;51.600;4.994;2023-05-10T09:59:49;19.13;;;4.75;;
30505;SDS011;17292;51.600;4.994;2023-05-10T10:02:16;17.90;;;6.40;;
30505;SDS011;17292;51.600;4.994;2023-05-10T10:04:42;20.40;;;4.72;;
30505;SDS011;17292;51.600;4.994;2023-05-10T10:07:08;18.85;;;4.88;;
30505;SDS011;17292;51.600;4.994;2023-05-10T10:09:35;18.52;;;4.88;;
30505;SDS011;17292;51.600;4.994;2023-05-10T10:12:02;20.50;;;4.38;;
30505;SDS011;17292;51.600;4.994;2023-05-10T10:14:29;15.75;;;5.20;;
30505;SDS011;17292;51.600;4.994;2023-05-10T10:16:55;19.70;;;4.70;;
30505;SDS011;17292;51.600;4.994;2023-05-10T10:19:21;16.60;;;5.10;;
30505;SDS011;17292;51.600;4.994;2023-05-10T10:21:49;21.05;;;5.25;;
30505;SDS011;17292;51.600;4.994;2023-05-10T10:24:15;27.75;;;5.20;;
30505;SDS011;17292;51.600;4.994;2023-05-10T10:26:42;28.80;;;5.55;;
30505;SDS011;17292;51.600;4.994;2023-05-10T10:29:23;21.55;;;5.10;;
30505;SDS011;17292;51.600;4.994;2023-05-10T10:34:38;31.25;;;5.30;;
30505;SDS011;17292;51.600;4.994;2023-05-10T10:37:05;27.85;;;5.55;;
30505;SDS011;17292;51.600;4.994;2023-05-10T10:39:31;28.30;;;5.63;;
30505;SDS011;17292;51.600;4.994;2023-05-10T10:41:58;16.75;;;5.15;;
30505;SDS011;17292;51.600;4.994;2023-05-10T10:50:02;24.92;;;5.43;;
30505;SDS011;17292;51.600;4.994;2023-05-10T10:52:32;21.80;;;5.45;;
30505;SDS011;17292;51.600;4.994;2023-05-10T10:55:00;26.58;;;5.63;;
30505;SDS011;17292;51.600;4.994;2023-05-10T10:57:27;20.17;;;4.75;;
30505;SDS011;17292;51.600;4.994;2023-05-10T11:02:43;25.48;;;5.13;;
30505;SDS011;17292;51.600;4.994;2023-05-10T11:05:23;18.85;;;4.32;;
30505;SDS011;17292;51.600;4.994;2023-05-10T11:07:56;23.23;;;5.53;;
30505;SDS011;17292;51.600;4.994;2023-05-10T11:10:23;23.88;;;5.50;;
30505;SDS011;17292;51.600;4.994;2023-05-10T11:12:59;20.48;;;5.05;;
30505;SDS011;17292;51.600;4.994;2023-05-10T11:15:36;16.30;;;5.32;;
30505;SDS011;17292;51.600;4.994;2023-05-10T11:18:22;25.65;;;5.25;;
30505;SDS011;17292;51.600;4.994;2023-05-10T11:20:52;20.38;;;4.88;;
30505;SDS011;17292;51.600;4.994;2023-05-10T11:23:18;15.63;;;5.28;;
30505;SDS011;17292;51.600;4.994;2023-05-10T11:25:46;25.02;;;5.55;;
30505;SDS011;17292;51.600;4.994;2023-05-10T11:28:13;15.88;;;5.00;;
30505;SDS011;17292;51.600;4.994;2023-05-10T11:30:41;17.75;;;5.13;;
30505;SDS011;17292;51.600;4.994;2023-05-10T11:33:07;16.33;;;4.65;;
30505;SDS011;17292;51.600;4.994;2023-05-10T11:35:37;28.98;;;5.60;;
30505;SDS011;17292;51.600;4.994;2023-05-10T11:38:07;25.63;;;6.43;;
30505;SDS011;17292;51.600;4.994;2023-05-10T11:40:34;29.52;;;5.68;;
30505;SDS011;17292;51.600;4.994;2023-05-10T11:43:00;28.83;;;4.90;;
30505;SDS011;17292;51.600;4.994;2023-05-10T11:45:26;19.95;;;5.25;;
30505;SDS011;17292;51.600;4.994;2023-05-10T11:47:56;20.80;;;5.75;;
30505;SDS011;17292;51.600;4.994;2023-05-10T11:50:23;23.58;;;5.13;;
30505;SDS011;17292;51.600;4.994;2023-05-10T11:52:53;24.65;;;5.57;;
30505;SDS011;17292;51.600;4.994;2023-05-10T11:55:19;20.55;;;5.53;;
30505;SDS011;17292;51.600;4.994;2023-05-10T11:57:45;16.05;;;5.18;;
30505;SDS011;17292;51.600;4.994;2023-05-10T12:00:12;20.15;;;5.70;;
30505;SDS011;17292;51.600;4.994;2023-05-10T12:02:39;29.42;;;5.22;;
30505;SDS011;17292;51.600;4.994;2023-05-10T12:05:05;23.67;;;5.55;;
30505;SDS011;17292;51.600;4.994;2023-05-10T12:07:32;24.05;;;5.43;;
30505;SDS011;17292;51.600;4.994;2023-05-10T12:12:43;24.55;;;5.25;;
30505;SDS011;17292;51.600;4.994;2023-05-10T12:15:17;21.15;;;5.68;;
30505;SDS011;17292;51.600;4.994;2023-05-10T12:17:47;24.85;;;5.30;;
30505;SDS011;17292;51.600;4.994;2023-05-10T12:20:16;24.45;;;5.55;;
30505;SDS011;17292;51.600;4.994;2023-05-10T12:22:46;19.35;;;5.20;;
30505;SDS011;17292;51.600;4.994;2023-05-10T12:25:12;21.85;;;6.05;;
30505;SDS011;17292;51.600;4.994;2023-05-10T12:27:39;15.20;;;5.43;;
30505;SDS011;17292;51.600;4.994;2023-05-10T12:30:05;18.75;;;5.80;;
30505;SDS011;17292;51.600;4.994;2023-05-10T12:32:38;20.95;;;5.45;;
30505;SDS011;17292;51.600;4.994;2023-05-10T12:35:04;20.55;;;5.95;;
30505;SDS011;17292;51.600;4.994;2023-05-10T12:37:30;30.88;;;6.38;;
30505;SDS011;17292;51.600;4.994;2023-05-10T12:40:00;27.02;;;5.50;;
30505;SDS011;17292;51.600;4.994;2023-05-10T12:42:28;28.33;;;6.60;;
30505;SDS011;17292;51.600;4.994;2023-05-10T12:44:55;16.92;;;4.85;;
30505;SDS011;17292;51.600;4.994;2023-05-10T12:47:22;31.65;;;6.38;;
30505;SDS011;17292;51.600;4.994;2023-05-10T12:49:48;17.95;;;4.90;;
30505;SDS011;17292;51.600;4.994;2023-05-10T12:52:14;20.88;;;5.55;;
30505;SDS011;17292;51.600;4.994;2023-05-10T12:54:40;38.47;;;6.20;;
30505;SDS011;17292;51.600;4.994;2023-05-10T12:57:06;15.00;;;5.18;;
30505;SDS011;17292;51.600;4.994;2023-05-10T12:59:32;32.47;;;5.88;;
30505;SDS011;17292;51.600;4.994;2023-05-10T13:01:59;29.08;;;6.10;;
30505;SDS011;17292;51.600;4.994;2023-05-10T13:04:25;23.80;;;5.78;;
30505;SDS011;17292;51.600;4.994;2023-05-10T13:06:51;22.67;;;4.50;;
30505;SDS011;17292;51.600;4.994;2023-05-10T13:09:17;27.75;;;5.75;;
30505;SDS011;17292;51.600;4.994;2023-05-10T13:11:44;25.33;;;5.50;;
30505;SDS011;17292;51.600;4.994;2023-05-10T13:14:10;22.90;;;5.55;;
30505;SDS011;17292;51.600;4.994;2023-05-10T13:16:36;26.67;;;5.50;;
30505;SDS011;17292;51.600;4.994;2023-05-10T13:19:02;26.90;;;5.68;;
30505;SDS011;17292;51.600;4.994;2023-05-10T13:21:30;21.50;;;5.22;;
30505;SDS011;17292;51.600;4.994;2023-05-10T13:23:56;25.02;;;5.63;;
30505;SDS011;17292;51.600;4.994;2023-05-10T13:26:23;21.83;;;5.68;;
30505;SDS011;17292;51.600;4.994;2023-05-10T13:28:50;20.02;;;5.32;;
30505;SDS011;17292;51.600;4.994;2023-05-10T13:31:16;20.75;;;4.90;;
30505;SDS011;17292;51.600;4.994;2023-05-10T13:33:42;21.85;;;5.57;;
30505;SDS011;17292;51.600;4.994;2023-05-10T13:36:08;17.25;;;4.82;;
30505;SDS011;17292;51.600;4.994;2023-05-10T13:38:35;21.55;;;5.32;;
30505;SDS011;17292;51.600;4.994;2023-05-10T13:41:01;32.33;;;5.10;;
30505;SDS011;17292;51.600;4.994;2023-05-10T13:43:28;18.58;;;4.53;;
30505;SDS011;17292;51.600;4.994;2023-05-10T13:45:54;21.30;;;5.22;;
30505;SDS011;17292;51.600;4.994;2023-05-10T13:48:21;16.40;;;4.35;;
30505;SDS011;17292;51.600;4.994;2023-05-10T13:50:47;13.15;;;4.38;;
30505;SDS011;17292;51.600;4.994;2023-05-10T13:53:13;21.23;;;5.50;;
30505;SDS011;17292;51.600;4.994;2023-05-10T13:55:39;19.30;;;5.07;;
30505;SDS011;17292;51.600;4.994;2023-05-10T13:58:05;26.33;;;5.55;;
30505;SDS011;17292;51.600;4.994;2023-05-10T14:00:31;24.35;;;5.57;;
30505;SDS011;17292;51.600;4.994;2023-05-10T14:02:58;19.02;;;4.70;;
30505;SDS011;17292;51.600;4.994;2023-05-10T14:05:24;18.48;;;5.30;;
30505;SDS011;17292;51.600;4.994;2023-05-10T14:07:50;17.70;;;4.93;;
30505;SDS011;17292;51.600;4.994;2023-05-10T14:10:16;19.10;;;4.97;;
30505;SDS011;17292;51.600;4.994;2023-05-10T14:12:42;12.52;;;4.75;;
30505;SDS011;17292;51.600;4.994;2023-05-10T14:15:09;23.15;;;5.18;;
30505;SDS011;17292;51.600;4.994;2023-05-10T14:17:36;17.17;;;4.82;;
30505;SDS011;17292;51.600;4.994;2023-05-10T14:20:02;18.20;;;4.70;;
30505;SDS011;17292;51.600;4.994;2023-05-10T14:22:29;22.38;;;5.00;;
30505;SDS011;17292;51.600;4.994;2023-05-10T14:24:55;14.65;;;5.22;;
30505;SDS011;17292;51.600;4.994;2023-05-10T14:27:21;15.55;;;4.90;;
30505;SDS011;17292;51.600;4.994;2023-05-10T14:29:48;16.20;;;4.60;;
30505;SDS011;17292;51.600;4.994;2023-05-10T14:32:14;18.02;;;4.70;;
30505;SDS011;17292;51.600;4.994;2023-05-10T14:34:40;21.17;;;5.68;;
30505;SDS011;17292;51.600;4.994;2023-05-10T14:37:06;19.15;;;5.20;;
30505;SDS011;17292;51.600;4.994;2023-05-10T14:39:32;24.88;;;5.35;;
30505;SDS011;17292;51.600;4.994;2023-05-10T14:41:59;22.33;;;5.72;;
30505;SDS011;17292;51.600;4.994;2023-05-10T14:44:25;19.85;;;5.30;;
30505;SDS011;17292;51.600;4.994;2023-05-10T14:46:51;18.02;;;4.75;;
30505;SDS011;17292;51.600;4.994;2023-05-10T14:49:17;17.75;;;4.78;;
30505;SDS011;17292;51.600;4.994;2023-05-10T14:51:43;16.90;;;5.15;;
30505;SDS011;17292;51.600;4.994;2023-05-10T14:54:10;23.98;;;5.18;;
30505;SDS011;17292;51.600;4.994;2023-05-10T14:56:36;22.40;;;5.03;;
30505;SDS011;17292;51.600;4.994;2023-05-10T14:59:02;18.83;;;5.60;;
30505;SDS011;17292;51.600;4.994;2023-05-10T15:01:29;18.90;;;4.78;;
30505;SDS011;17292;51.600;4.994;2023-05-10T15:03:56;12.32;;;4.88;;
30505;SDS011;17292;51.600;4.994;2023-05-10T15:06:23;13.07;;;4.97;;
30505;SDS011;17292;51.600;4.994;2023-05-10T15:08:50;22.52;;;5.03;;
30505;SDS011;17292;51.600;4.994;2023-05-10T15:11:16;20.02;;;4.53;;
30505;SDS011;17292;51.600;4.994;2023-05-10T15:13:42;15.65;;;4.45;;
30505;SDS011;17292;51.600;4.994;2023-05-10T15:16:08;17.40;;;4.57;;